Time;durP1;ratioP1;P1;durP2;ratioP2;P2;SDS_P1;SDS_P2;PMS_P1;PMS_P2;Temp;Humidity;BMP_temperature;BMP_pressure;BME280_temperature;BME280_humidity;BME280_pressure;Samples;Min_cycle;Max_cycle;Signal;HPM_P1;HPM_P2
2022/07/31 00:01:58;;;;;;;8.60;3.60;;;;;;;22.00;57.84;99356.80;1699830;83;21106;-46
2022/07/31 00:04:27;;;;;;;6.62;3.58;;;;;;;22.04;57.79;99359.45;1699871;83;21540;-46
2022/07/31 00:06:54;;;;;;;6.07;3.87;;;;;;;22.05;57.75;99353.50;1695426;83;21066;-46
2022/07/31 00:09:21;;;;;;;6.75;3.72;;;;;;;22.07;57.47;99349.67;1699812;84;23169;-46
2022/07/31 00:11:48;;;;;;;13.13;4.70;;;;;;;22.08;57.43;99348.47;1699684;84;21054;-46
2022/07/31 00:14:15;;;;;;;10.53;4.22;;;;;;;22.08;57.62;99338.03;1699971;84;21092;-46
2022/07/31 00:16:42;;;;;;;6.50;3.80;;;;;;;22.08;57.83;99338.81;1699873;84;20934;-46
2022/07/31 00:19:09;;;;;;;6.05;3.90;;;;;;;22.05;57.85;99335.55;1699890;83;21665;-46
2022/07/31 00:21:36;;;;;;;8.10;3.72;;;;;;;22.02;57.89;99337.82;1699807;84;21317;-46
2022/07/31 00:24:04;;;;;;;7.42;3.77;;;;;;;21.98;57.96;99332.98;1699903;83;21560;-46
2022/07/31 00:26:31;;;;;;;5.62;3.72;;;;;;;21.96;57.92;99328.52;1699924;84;21544;-46
2022/07/31 00:28:58;;;;;;;7.25;3.37;;;;;;;21.94;58.06;99333.69;1700070;83;21027;-46
2022/07/31 00:31:25;;;;;;;5.55;3.50;;;;;;;21.90;57.83;99338.50;1699993;83;21050;-46
2022/07/31 00:33:53;;;;;;;13.18;3.87;;;;;;;21.87;58.11;99328.95;1700074;84;21146;-46
2022/07/31 00:36:20;;;;;;;4.72;3.37;;;;;;;21.82;58.23;99332.23;1699957;84;21049;-46
2022/07/31 00:38:48;;;;;;;6.53;3.60;;;;;;;21.77;58.45;99332.17;1699848;84;21089;-46
2022/07/31 00:41:16;;;;;;;5.67;3.60;;;;;;;21.75;58.44;99328.28;1700129;84;20990;-46
2022/07/31 00:43:43;;;;;;;6.00;3.55;;;;;;;21.69;58.06;99326.66;1699780;84;21097;-46
2022/07/31 00:46:11;;;;;;;8.43;3.80;;;;;;;21.64;58.30;99322.44;1716136;83;21976;-46
2022/07/31 00:48:38;;;;;;;5.83;3.40;;;;;;;21.61;58.55;99321.94;1720612;83;21036;-46
2022/07/31 00:51:05;;;;;;;7.72;3.45;;;;;;;21.62;58.37;99320.73;1720830;83;21016;-46
2022/07/31 00:53:32;;;;;;;8.70;3.77;;;;;;;21.64;58.31;99328.56;1720656;83;21021;-46
2022/07/31 00:55:58;;;;;;;4.67;3.27;;;;;;;21.65;58.29;99332.27;1720786;83;21819;-46
2022/07/31 00:58:26;;;;;;;6.62;3.55;;;;;;;21.67;58.28;99324.95;1720768;83;21924;-46
2022/07/31 01:00:53;;;;;;;8.55;3.55;;;;;;;21.66;58.03;99324.77;1720529;83;20956;-46
2022/07/31 01:03:20;;;;;;;6.80;3.27;;;;;;;21.66;58.12;99327.53;1720832;83;20957;-46
2022/07/31 01:05:47;;;;;;;5.35;3.37;;;;;;;21.63;58.37;99329.19;1720826;83;21000;-46
2022/07/31 01:08:14;;;;;;;7.67;3.70;;;;;;;21.62;58.54;99322.72;1720904;83;21041;-46
2022/07/31 01:10:50;;;;;;;5.87;3.37;;;;;;;21.58;58.47;99326.18;1720892;83;21253;-46
2022/07/31 01:13:53;;;;;;;5.87;3.40;;;;;;;21.54;58.21;99326.88;1720966;83;21504;-46
2022/07/31 01:16:25;;;;;;;6.35;3.83;;;;;;;21.49;58.20;99328.78;1720668;83;21069;-46
2022/07/31 01:18:54;;;;;;;4.78;3.33;;;;;;;21.42;58.11;99319.30;1720311;83;21558;-46
2022/07/31 01:21:41;;;;;;;9.07;3.77;;;;;;;21.37;58.23;99317.06;1720859;83;21062;-46
2022/07/31 01:24:23;;;;;;;3.87;3.47;;;;;;;21.33;58.24;99315.78;1720689;83;21261;-46
2022/07/31 01:27:02;;;;;;;7.58;3.87;;;;;;;21.25;58.16;99315.17;1719013;83;21053;-46
2022/07/31 01:29:38;;;;;;;5.58;3.30;;;;;;;21.20;58.27;99312.94;1720640;83;21034;-46
2022/07/31 01:32:14;;;;;;;5.95;3.58;;;;;;;21.15;58.13;99311.33;1720841;83;20942;-46
2022/07/31 01:34:51;;;;;;;5.03;3.30;;;;;;;21.13;58.25;99306.23;1720598;83;21057;-46
2022/07/31 01:37:31;;;;;;;3.98;3.58;;;;;;;21.08;58.24;99306.72;1720890;83;21090;-46
2022/07/31 01:40:14;;;;;;;4.55;3.17;;;;;;;21.06;58.21;99304.21;1720796;83;21061;-46
2022/07/31 01:42:53;;;;;;;5.05;2.83;;;;;;;21.00;58.25;99296.31;1720702;83;21106;-46
2022/07/31 01:45:20;;;;;;;7.22;3.30;;;;;;;20.95;58.36;99297.61;1714807;83;21120;-46
2022/07/31 01:47:47;;;;;;;4.78;3.25;;;;;;;20.94;58.48;99302.16;1700151;83;21106;-46
2022/07/31 01:50:14;;;;;;;4.92;2.87;;;;;;;20.93;58.36;99302.77;1699930;84;21297;-46
2022/07/31 01:52:42;;;;;;;4.10;3.20;;;;;;;20.92;58.32;99303.95;1699940;84;21031;-46
2022/07/31 01:55:10;;;;;;;5.37;3.22;;;;;;;20.90;58.11;99305.01;1680275;84;20978;-46
2022/07/31 01:57:38;;;;;;;4.78;2.90;;;;;;;20.89;58.12;99304.83;1699660;84;21592;-46
2022/07/31 02:00:08;;;;;;;5.33;3.00;;;;;;;20.88;58.02;99303.27;1699921;84;21030;-46
2022/07/31 02:02:42;;;;;;;3.92;3.05;;;;;;;20.88;57.90;99304.66;1699745;84;21254;-46
2022/07/31 02:05:10;;;;;;;3.17;2.58;;;;;;;20.86;57.65;99307.08;1699810;83;20993;-46
2022/07/31 02:07:41;;;;;;;4.83;3.00;;;;;;;20.85;57.51;99308.88;1699826;84;21023;-46
2022/07/31 02:10:10;;;;;;;5.20;3.08;;;;;;;20.82;57.53;99311.27;1699930;84;21029;-46
2022/07/31 02:12:37;;;;;;;4.97;3.20;;;;;;;20.81;57.54;99308.97;1680014;84;21081;-46
2022/07/31 02:15:08;;;;;;;5.28;2.77;;;;;;;20.82;57.58;99316.78;1679805;84;21244;-46
2022/07/31 02:17:36;;;;;;;4.62;2.67;;;;;;;20.81;57.50;99313.10;1699735;84;21018;-46
2022/07/31 02:20:23;;;;;;;4.62;2.80;;;;;;;20.79;58.00;99312.14;1699862;83;21026;-46
2022/07/31 02:22:56;;;;;;;5.20;2.92;;;;;;;20.76;57.51;99317.14;1699802;83;21485;-46
2022/07/31 02:25:23;;;;;;;4.55;2.62;;;;;;;20.76;57.72;99319.12;1700038;83;21901;-46
2022/07/31 02:27:50;;;;;;;5.35;2.60;;;;;;;20.75;57.56;99319.72;1700064;83;21141;-46
2022/07/31 02:30:17;;;;;;;4.45;2.70;;;;;;;20.77;57.65;99326.94;1700063;84;20970;-46
2022/07/31 02:32:46;;;;;;;3.77;2.58;;;;;;;20.77;57.44;99316.52;1700009;84;20998;-46
2022/07/31 02:35:15;;;;;;;3.70;2.72;;;;;;;20.79;57.49;99316.27;1700249;84;21089;-46
2022/07/31 02:37:43;;;;;;;4.58;2.85;;;;;;;20.81;57.64;99321.37;1699918;83;21082;-46
2022/07/31 02:40:11;;;;;;;4.15;2.67;;;;;;;20.81;57.64;99325.50;1699946;84;21101;-46
2022/07/31 02:42:40;;;;;;;3.90;2.90;;;;;;;20.82;57.63;99327.80;1699686;83;21018;-46
2022/07/31 02:45:08;;;;;;;3.95;2.83;;;;;;;20.84;57.57;99332.89;1680057;84;21050;-46
2022/07/31 02:47:37;;;;;;;4.75;2.47;;;;;;;20.86;57.41;99333.25;1707703;83;21073;-46
2022/07/31 02:50:07;;;;;;;3.55;2.50;;;;;;;20.87;57.27;99333.41;1707652;84;21029;-46
2022/07/31 02:52:35;;;;;;;4.22;2.77;;;;;;;20.88;57.38;99336.34;1707926;83;21107;-46
2022/07/31 02:55:03;;;;;;;3.55;2.77;;;;;;;20.89;57.22;99332.39;1707631;84;20950;-46
2022/07/31 02:57:30;;;;;;;3.17;2.75;;;;;;;20.90;57.55;99333.17;1707979;84;21014;-46
2022/07/31 02:59:58;;;;;;;4.72;2.65;;;;;;;20.91;57.47;99332.75;1707735;84;20982;-46
2022/07/31 03:02:25;;;;;;;4.75;2.47;;;;;;;20.92;57.61;99332.89;1707678;83;21038;-46
2022/07/31 03:04:53;;;;;;;6.58;3.00;;;;;;;20.92;57.52;99326.60;1707612;84;21231;-46
2022/07/31 03:07:21;;;;;;;5.78;2.70;;;;;;;20.94;57.40;99326.96;1707760;84;21483;-45
2022/07/31 03:09:48;;;;;;;4.42;2.77;;;;;;;20.96;57.13;99326.69;1707571;83;20994;-45
2022/07/31 03:12:34;;;;;;;4.65;2.90;;;;;;;20.98;57.07;99326.27;1713363;83;21048;-46
2022/07/31 03:15:01;;;;;;;4.28;2.90;;;;;;;21.00;57.14;99328.78;1700658;84;21048;-46
2022/07/31 03:17:29;;;;;;;4.12;2.52;;;;;;;21.02;57.23;99331.09;1713336;83;23178;-46
2022/07/31 03:19:56;;;;;;;4.60;2.85;;;;;;;21.02;57.12;99331.87;1700655;84;21000;-46
2022/07/31 03:22:23;;;;;;;3.70;2.80;;;;;;;21.04;57.02;99335.58;1713419;83;21029;-46
2022/07/31 03:24:52;;;;;;;3.20;2.47;;;;;;;21.04;57.21;99335.58;1700460;84;21413;-46
2022/07/31 03:27:19;;;;;;;3.58;2.55;;;;;;;21.03;57.09;99329.30;1713252;83;21031;-46
2022/07/31 03:29:46;;;;;;;5.10;2.70;;;;;;;21.04;57.09;99332.23;1700424;84;21229;-46
2022/07/31 03:32:14;;;;;;;4.62;2.40;;;;;;;21.05;56.77;99333.78;1713059;83;21037;-46
2022/07/31 03:34:41;;;;;;;3.45;2.30;;;;;;;21.06;56.60;99327.64;1700421;84;21531;-46
2022/07/31 03:37:09;;;;;;;4.83;2.67;;;;;;;21.07;56.58;99324.46;1713084;83;21573;-45
2022/07/31 03:39:36;;;;;;;5.03;2.70;;;;;;;21.09;56.67;99319.30;1700279;84;21022;-45
2022/07/31 03:42:08;;;;;;;4.00;2.67;;;;;;;21.12;56.50;99327.30;1713380;83;21338;-45
2022/07/31 03:44:37;;;;;;;7.75;2.55;;;;;;;21.13;56.44;99325.53;1684414;85;20897;-45
2022/07/31 03:47:05;;;;;;;4.12;2.42;;;;;;;21.15;56.31;99325.89;1696570;84;21044;-45
2022/07/31 03:49:32;;;;;;;4.55;2.62;;;;;;;21.17;56.32;99324.84;1695350;84;20969;-45
2022/07/31 03:52:01;;;;;;;8.90;2.42;;;;;;;21.21;56.42;99323.37;1695370;84;21085;-45
2022/07/31 03:54:28;;;;;;;3.20;2.77;;;;;;;21.24;56.21;99321.92;1695367;84;21234;-46
2022/07/31 03:57:00;;;;;;;2.72;2.42;;;;;;;21.29;56.07;99317.86;1693896;84;21476;-45
2022/07/31 03:59:27;;;;;;;2.47;2.02;;;;;;;21.34;55.99;99313.81;1695331;84;21574;-45
2022/07/31 04:01:54;;;;;;;3.55;2.08;;;;;;;21.39;55.88;99311.91;1695418;84;21069;-46
2022/07/31 04:04:23;;;;;;;4.08;2.10;;;;;;;21.42;55.39;99315.16;1692579;84;21566;-45
2022/07/31 04:06:56;;;;;;;3.83;2.33;;;;;;;21.45;55.22;99310.15;1694939;84;21335;-45
2022/07/31 04:09:23;;;;;;;2.45;2.02;;;;;;;21.48;55.07;99316.98;1695234;84;20993;-45
2022/07/31 04:11:51;;;;;;;4.10;2.50;;;;;;;21.54;54.99;99311.08;1695040;84;21049;-45
2022/07/31 04:14:19;;;;;;;4.50;2.42;;;;;;;21.59;55.12;99308.42;1695379;84;20977;-45
2022/07/31 04:16:46;;;;;;;5.10;2.52;;;;;;;21.64;55.13;99311.41;1695220;84;21013;-45
2022/07/31 04:19:13;;;;;;;2.90;2.25;;;;;;;21.69;54.85;99310.09;1695411;84;21583;-45
2022/07/31 04:21:41;;;;;;;4.80;2.20;;;;;;;21.76;54.46;99309.92;1695169;84;21069;-45
2022/07/31 04:24:10;;;;;;;3.02;2.20;;;;;;;21.84;54.36;99314.63;1695067;84;21065;-45
2022/07/31 04:26:57;;;;;;;4.33;2.17;;;;;;;21.92;53.83;99314.02;1693211;84;20981;-45
2022/07/31 04:29:28;;;;;;;7.87;2.22;;;;;;;22.01;53.45;99315.55;1694183;84;21085;-45
2022/07/31 04:31:56;;;;;;;2.67;2.00;;;;;;;22.10;53.11;99312.93;1695251;84;22043;-45
2022/07/31 04:34:25;;;;;;;3.92;2.17;;;;;;;22.20;52.90;99313.05;1694156;84;21077;-45
2022/07/31 04:36:52;;;;;;;2.67;2.22;;;;;;;22.29;52.96;99317.33;1695113;84;21033;-45
2022/07/31 04:39:19;;;;;;;3.70;2.10;;;;;;;22.39;52.43;99321.77;1695102;84;21005;-46
2022/07/31 04:41:46;;;;;;;3.70;2.10;;;;;;;22.46;52.02;99324.33;1694993;84;21059;-45
2022/07/31 04:44:14;;;;;;;4.62;2.30;;;;;;;22.51;51.70;99323.14;1695109;84;21120;-46
2022/07/31 04:47:00;;;;;;;3.35;2.00;;;;;;;22.57;51.41;99326.14;1695133;83;21032;-46
2022/07/31 04:49:29;;;;;;;4.33;2.12;;;;;;;22.61;51.32;99324.03;1665252;84;21041;-46
2022/07/31 04:51:56;;;;;;;6.28;2.10;;;;;;;22.67;51.24;99320.89;1665896;84;21669;-46
2022/07/31 04:54:24;;;;;;;3.42;1.72;;;;;;;22.72;51.16;99320.98;1695262;84;21056;-46
2022/07/31 04:56:51;;;;;;;3.62;2.02;;;;;;;22.75;51.00;99320.11;1695292;84;21305;-46
2022/07/31 04:59:20;;;;;;;2.60;1.98;;;;;;;22.76;50.93;99321.64;1695218;84;20957;-46
2022/07/31 05:01:47;;;;;;;5.33;1.82;;;;;;;22.75;50.83;99323.63;1695021;84;21081;-46
2022/07/31 05:04:16;;;;;;;2.77;1.70;;;;;;;22.76;50.87;99323.80;1695219;84;21542;-46
2022/07/31 05:06:46;;;;;;;2.62;2.10;;;;;;;22.74;50.74;99322.10;1694974;84;21041;-46
2022/07/31 05:09:18;;;;;;;3.98;1.90;;;;;;;22.70;51.09;99331.11;1695405;84;21929;-46
2022/07/31 05:11:47;;;;;;;3.35;1.92;;;;;;;22.69;51.17;99334.28;1695010;84;21108;-45
2022/07/31 05:14:15;;;;;;;3.65;2.15;;;;;;;22.67;51.17;99330.56;1665372;84;21124;-45
2022/07/31 05:16:42;;;;;;;9.58;2.20;;;;;;;22.70;51.70;99330.31;1694819;84;21061;-45
2022/07/31 05:19:11;;;;;;;2.37;1.77;;;;;;;22.74;51.88;99332.38;1690759;84;21048;-45
2022/07/31 05:21:58;;;;;;;3.60;2.00;;;;;;;22.77;51.66;99331.48;1695054;84;21232;-45
2022/07/31 05:24:27;;;;;;;3.20;2.05;;;;;;;22.79;51.40;99331.83;1690233;84;21001;-46
2022/07/31 05:26:55;;;;;;;2.85;2.02;;;;;;;22.81;51.46;99330.16;1694248;84;21049;-46
2022/07/31 05:29:23;;;;;;;5.10;1.90;;;;;;;22.89;51.68;99327.95;1695211;84;21028;-46
2022/07/31 05:31:50;;;;;;;4.45;2.02;;;;;;;22.95;51.55;99322.02;1695079;84;21052;-46
2022/07/31 05:34:17;;;;;;;5.37;1.80;;;;;;;23.00;51.26;99328.98;1695176;84;21211;-46
2022/07/31 05:36:45;;;;;;;2.65;1.62;;;;;;;23.04;51.03;99321.37;1695195;84;20996;-45
2022/07/31 05:39:13;;;;;;;3.05;1.90;;;;;;;23.08;51.08;99317.88;1695154;84;21104;-46
2022/07/31 05:41:40;;;;;;;3.98;1.90;;;;;;;23.14;51.16;99328.55;1695032;84;20950;-46
2022/07/31 05:44:17;;;;;;;4.12;2.30;;;;;;;23.19;51.32;99323.84;1695282;84;21065;-46
2022/07/31 05:46:47;;;;;;;3.50;2.62;;;;;;;23.24;51.44;99314.34;1696784;83;21256;-45
2022/07/31 05:49:15;;;;;;;7.37;3.05;;;;;;;23.31;51.12;99314.12;1700533;84;21004;-45
2022/07/31 05:51:45;;;;;;;5.90;3.30;;;;;;;23.37;51.01;99310.95;1700424;84;21401;-46
2022/07/31 05:54:13;;;;;;;4.85;2.42;;;;;;;23.47;50.31;99311.84;1700753;84;20957;-46
2022/07/31 05:56:58;;;;;;;3.55;2.00;;;;;;;23.56;48.95;99309.15;1700762;84;21503;-46
2022/07/31 05:59:27;;;;;;;4.03;2.00;;;;;;;23.64;49.02;99306.89;1699505;84;21136;-46
2022/07/31 06:01:54;;;;;;;6.85;2.30;;;;;;;23.75;48.52;99305.31;1700532;84;21594;-45
2022/07/31 06:04:21;;;;;;;2.55;1.82;;;;;;;23.85;47.84;99302.00;1700537;84;20929;-45
2022/07/31 06:06:48;;;;;;;2.85;1.87;;;;;;;23.97;48.33;99311.45;1700519;84;21040;-45
2022/07/31 06:09:16;;;;;;;6.65;2.15;;;;;;;24.05;48.15;99303.83;1700441;84;21048;-46
2022/07/31 06:11:45;;;;;;;3.37;1.67;;;;;;;24.13;47.53;99300.95;1700469;84;21136;-45
2022/07/31 06:14:12;;;;;;;3.92;1.52;;;;;;;24.22;47.24;99299.64;1700690;84;21449;-46
2022/07/31 06:16:51;;;;;;;6.37;1.87;;;;;;;24.35;47.10;99294.64;1677869;84;21056;-46
2022/07/31 06:19:19;;;;;;;4.05;1.90;;;;;;;24.47;46.94;99302.86;1700796;84;21085;-46
2022/07/31 06:21:46;;;;;;;4.62;1.50;;;;;;;24.58;46.14;99297.68;1700589;84;21045;-46
2022/07/31 06:24:14;;;;;;;4.97;1.70;;;;;;;24.69;45.38;99298.63;1700597;84;21142;-46
2022/07/31 06:26:42;;;;;;;6.90;1.70;;;;;;;24.79;45.04;99295.27;1699957;84;20965;-46
2022/07/31 06:29:09;;;;;;;4.67;1.60;;;;;;;24.86;44.23;99290.84;1700398;84;21100;-46
2022/07/31 06:31:36;;;;;;;5.90;1.70;;;;;;;24.93;44.03;99297.53;1700617;84;21531;-46
2022/07/31 06:34:04;;;;;;;2.98;1.37;;;;;;;25.01;44.78;99292.61;1700520;84;21048;-46
2022/07/31 06:36:35;;;;;;;6.05;1.87;;;;;;;25.13;44.62;99290.92;1699939;84;21243;-46
2022/07/31 06:39:04;;;;;;;3.95;2.17;;;;;;;25.25;44.70;99294.81;1700455;84;20953;-46
2022/07/31 06:41:46;;;;;;;2.50;1.60;;;;;;;25.35;43.87;99295.75;1700306;84;21044;-46
2022/07/31 06:44:32;;;;;;;3.20;1.40;;;;;;;25.41;43.79;99299.47;1700500;84;20996;-46
2022/07/31 06:47:21;;;;;;;3.10;1.62;;;;;;;25.46;42.72;99289.11;1698337;83;21061;-46
2022/07/31 06:49:56;;;;;;;3.45;1.92;;;;;;;25.49;42.43;99286.81;1693372;84;21267;-46
2022/07/31 06:52:24;;;;;;;3.07;1.60;;;;;;;25.57;43.30;99275.42;1694938;84;21005;-45
2022/07/31 06:54:52;;;;;;;2.50;1.55;;;;;;;25.65;43.72;99275.28;1695034;84;21067;-45
2022/07/31 06:57:19;;;;;;;5.00;2.08;;;;;;;25.75;43.71;99270.66;1695008;84;21562;-46
2022/07/31 07:02:04;;;;;;;3.10;1.50;;;;;;;26.01;42.42;99266.89;1774791;79;22700;-46
2022/07/31 07:04:31;;;;;;;3.92;1.77;;;;;;;26.04;41.96;99274.92;1746589;82;21597;-46
2022/07/31 07:06:59;;;;;;;4.12;1.80;;;;;;;26.15;41.16;99266.23;1746326;82;23142;-46
2022/07/31 07:09:26;;;;;;;1.80;1.40;;;;;;;26.26;40.89;99266.55;1746393;82;21026;-46
2022/07/31 07:11:53;;;;;;;3.50;1.55;;;;;;;26.37;40.50;99257.10;1746478;82;21022;-46
2022/07/31 07:14:21;;;;;;;3.55;1.67;;;;;;;26.47;39.77;99258.45;1746381;82;20991;-46
2022/07/31 07:16:48;;;;;;;3.95;1.70;;;;;;;26.57;39.34;99263.51;1746460;82;20991;-46
2022/07/31 07:19:16;;;;;;;2.47;1.55;;;;;;;26.65;39.11;99252.19;1746563;82;21321;-46
2022/07/31 07:21:43;;;;;;;2.37;1.42;;;;;;;26.72;39.39;99253.21;1746426;82;20923;-46
2022/07/31 07:24:10;;;;;;;1.95;1.50;;;;;;;26.81;39.39;99252.42;1746469;82;20935;-46
2022/07/31 07:26:42;;;;;;;3.33;1.40;;;;;;;26.90;38.77;99255.17;1726632;82;20975;-46
2022/07/31 07:29:09;;;;;;;4.08;1.37;;;;;;;26.98;38.80;99261.91;1746679;82;21062;-46
2022/07/31 07:31:37;;;;;;;4.33;1.67;;;;;;;27.06;38.33;99253.34;1746484;82;21300;-46
2022/07/31 07:34:05;;;;;;;5.42;1.47;;;;;;;27.13;37.88;99248.06;1746575;82;21007;-46
2022/07/31 07:36:32;;;;;;;3.85;1.72;;;;;;;27.18;38.40;99245.39;1746462;82;20994;-46
2022/07/31 07:39:02;;;;;;;3.95;1.72;;;;;;;27.28;38.29;99249.50;1746398;82;21069;-45
2022/07/31 07:41:29;;;;;;;2.47;1.50;;;;;;;27.34;38.07;99251.78;1746279;82;21086;-46
2022/07/31 07:43:57;;;;;;;4.70;2.08;;;;;;;27.40;38.66;99242.92;1746503;82;21142;-46
2022/07/31 07:46:26;;;;;;;6.07;1.70;;;;;;;27.51;38.86;99241.75;1746543;82;21502;-46
2022/07/31 07:48:57;;;;;;;5.53;1.70;;;;;;;27.63;37.59;99247.70;1745422;82;21552;-46
2022/07/31 07:51:32;;;;;;;2.60;1.57;;;;;;;27.66;37.91;99246.11;1685186;82;21505;-46
2022/07/31 07:54:02;;;;;;;1.75;1.45;;;;;;;27.74;37.45;99247.88;1745217;82;21019;-46
2022/07/31 07:56:31;;;;;;;2.62;1.35;;;;;;;27.86;37.54;99244.06;1746750;82;21529;-46
2022/07/31 07:59:17;;;;;;;3.08;1.60;;;;;;;27.99;37.93;99241.75;1746390;82;21506;-46
2022/07/31 08:02:03;;;;;;;1.98;1.60;;;;;;;28.15;37.18;99245.34;1663182;85;21214;-46
2022/07/31 08:04:32;;;;;;;3.55;2.05;;;;;;;28.32;36.53;99235.23;1667190;86;20997;-46
2022/07/31 08:06:59;;;;;;;5.05;2.10;;;;;;;28.46;36.10;99228.86;1699292;81;21081;-46
2022/07/31 08:09:31;;;;;;;4.60;1.67;;;;;;;28.59;36.47;99230.70;1757210;81;20970;-46
2022/07/31 08:12:15;;;;;;;3.40;1.47;;;;;;;28.72;35.43;99234.58;1721164;81;21548;-46
2022/07/31 08:14:47;;;;;;;1.90;1.45;;;;;;;28.80;35.03;99232.93;1701981;81;21540;-46
2022/07/31 08:17:32;;;;;;;3.55;1.72;;;;;;;28.85;35.28;99231.59;1756792;81;20987;-46
2022/07/31 08:19:59;;;;;;;3.80;1.87;;;;;;;28.93;34.66;99222.96;1756870;81;21537;-46
2022/07/31 08:22:26;;;;;;;3.00;1.60;;;;;;;29.04;34.16;99219.55;1756904;81;21194;-46
2022/07/31 08:24:55;;;;;;;3.55;1.80;;;;;;;29.16;34.09;99228.81;1780429;80;20961;-46
2022/07/31 08:27:22;;;;;;;3.35;1.70;;;;;;;29.25;33.61;99226.64;1788200;80;20969;-46
2022/07/31 08:29:55;;;;;;;5.78;1.70;;;;;;;29.34;33.53;99218.77;1787870;80;20965;-46
2022/07/31 08:32:24;;;;;;;6.03;1.95;;;;;;;29.43;33.20;99217.24;1788453;80;20993;-46
2022/07/31 08:35:01;;;;;;;2.75;1.65;;;;;;;29.53;32.68;99221.39;1788023;80;21238;-46
2022/07/31 08:37:29;;;;;;;3.45;1.65;;;;;;;29.61;32.69;99206.38;1788074;80;20937;-46
2022/07/31 08:39:56;;;;;;;3.45;1.80;;;;;;;29.69;32.71;99213.81;1788051;80;20937;-46
2022/07/31 08:42:23;;;;;;;3.85;2.05;;;;;;;29.74;33.09;99204.72;1788080;80;21004;-46
2022/07/31 08:44:51;;;;;;;4.40;1.90;;;;;;;29.78;32.33;99200.30;1788036;80;21516;-46
2022/07/31 08:47:20;;;;;;;5.83;1.80;;;;;;;29.80;32.62;99205.55;1787977;80;23166;-46
2022/07/31 08:49:48;;;;;;;4.60;1.85;;;;;;;29.88;32.58;99200.89;1787828;80;20921;-46
2022/07/31 08:52:20;;;;;;;3.65;1.80;;;;;;;29.96;32.67;99199.23;1787941;80;20976;-46
2022/07/31 08:54:58;;;;;;;4.00;2.10;;;;;;;30.05;32.20;99192.83;1787275;80;21510;-46
2022/07/31 08:57:25;;;;;;;4.50;1.70;;;;;;;30.14;32.28;99194.67;1787998;80;21060;-46
2022/07/31 08:59:54;;;;;;;4.90;1.77;;;;;;;30.21;32.19;99185.81;1787885;80;23208;-46
2022/07/31 09:02:22;;;;;;;2.73;1.93;;;;;;;30.30;31.86;99186.27;1777032;80;20997;-46
2022/07/31 09:04:57;;;;;;;5.22;1.95;;;;;;;30.36;32.09;99180.06;1739999;80;20930;-46
2022/07/31 09:07:24;;;;;;;3.20;1.70;;;;;;;30.42;31.19;99171.08;1752887;80;21499;-46
2022/07/31 09:09:51;;;;;;;4.37;1.60;;;;;;;30.46;31.80;99174.44;1774461;80;21084;-46
2022/07/31 09:12:30;;;;;;;3.20;1.75;;;;;;;30.46;31.48;99166.81;1774495;80;21106;-46
2022/07/31 09:15:21;;;;;;;6.42;1.60;;;;;;;30.49;31.36;99170.66;1773093;80;21531;-46
2022/07/31 09:17:48;;;;;;;3.98;1.70;;;;;;;30.57;30.93;99164.72;1774272;80;21052;-46
2022/07/31 09:20:23;;;;;;;2.62;1.60;;;;;;;30.61;30.75;99161.81;1774292;80;21665;-46
2022/07/31 09:23:08;;;;;;;4.72;1.70;;;;;;;30.64;31.12;99162.20;1773115;80;21041;-46
2022/07/31 09:25:38;;;;;;;3.25;1.90;;;;;;;30.74;30.51;99158.59;1773942;80;21527;-46
2022/07/31 09:28:06;;;;;;;2.50;1.40;;;;;;;30.82;30.16;99158.86;1774221;80;21022;-46
2022/07/31 09:30:34;;;;;;;3.77;1.47;;;;;;;30.90;30.22;99157.88;1774396;80;21531;-46
2022/07/31 09:33:22;;;;;;;2.10;1.57;;;;;;;30.98;30.21;99156.77;1693484;84;21111;-46
2022/07/31 09:36:04;;;;;;;2.60;1.60;;;;;;;31.09;30.09;99154.02;1693524;84;21102;-46
2022/07/31 09:38:36;;;;;;;3.40;2.00;;;;;;;31.18;29.53;99157.98;1691866;83;21155;-46
2022/07/31 09:41:20;;;;;;;2.87;1.60;;;;;;;31.26;29.66;99160.45;1688928;85;21089;-46
2022/07/31 09:44:04;;;;;;;3.67;1.82;;;;;;;31.33;29.58;99155.73;1747894;80;20969;-46
2022/07/31 09:46:42;;;;;;;4.10;1.60;;;;;;;31.38;29.27;99153.58;1774408;80;21041;-46
2022/07/31 09:49:09;;;;;;;4.10;1.60;;;;;;;31.45;28.84;99148.89;1774437;80;21053;-46
2022/07/31 09:51:42;;;;;;;2.22;1.67;;;;;;;31.53;28.69;99145.58;1774084;80;21244;-46
2022/07/31 09:54:22;;;;;;;4.47;1.80;;;;;;;31.62;28.89;99151.73;1774435;80;21049;-46
2022/07/31 09:57:12;;;;;;;3.05;1.60;;;;;;;31.76;29.45;99142.94;1774185;80;20965;-46
2022/07/31 09:59:46;;;;;;;6.60;1.77;;;;;;;31.95;29.16;99144.62;1773885;80;21469;-46
2022/07/31 10:02:14;;;;;;;3.00;1.75;;;;;;;32.11;28.52;99138.23;1774063;80;21025;-47
2022/07/31 10:04:43;;;;;;;3.40;1.70;;;;;;;32.21;27.64;99141.67;1778502;80;22038;-46
2022/07/31 10:07:13;;;;;;;4.62;1.72;;;;;;;32.31;27.92;99142.92;1779797;80;20937;-46
2022/07/31 10:09:40;;;;;;;5.65;1.77;;;;;;;32.37;27.72;99142.15;1779808;80;20993;-46
2022/07/31 10:12:12;;;;;;;3.67;2.00;;;;;;;32.45;27.26;99131.91;1779007;80;21093;-46
2022/07/31 10:14:42;;;;;;;2.85;1.70;;;;;;;32.53;27.50;99127.31;1779925;80;21013;-46
2022/07/31 10:17:09;;;;;;;2.25;1.40;;;;;;;32.55;27.16;99128.31;1780043;80;23134;-46
2022/07/31 10:20:02;;;;;;;5.42;1.72;;;;;;;32.60;26.66;99120.52;1703857;84;21038;-46
2022/07/31 10:23:00;;;;;;;3.67;1.50;;;;;;;32.71;26.35;99126.77;1703881;84;21074;-46
2022/07/31 10:25:29;;;;;;;2.20;1.60;;;;;;;32.83;26.32;99119.04;1750267;80;21056;-46
2022/07/31 10:27:58;;;;;;;3.95;1.60;;;;;;;32.94;26.12;99122.56;1779921;80;21025;-46
2022/07/31 10:30:25;;;;;;;4.72;1.72;;;;;;;33.05;25.79;99119.70;1780049;80;21983;-46
2022/07/31 10:32:54;;;;;;;3.90;1.60;;;;;;;33.12;25.90;99114.92;1780055;80;21021;-46
2022/07/31 10:35:25;;;;;;;3.00;1.60;;;;;;;33.24;26.32;99114.89;1779866;80;21574;-46
2022/07/31 10:38:31;;;;;;;2.08;1.60;;;;;;;33.34;25.26;99114.70;1779930;80;21529;-46
2022/07/31 10:41:08;;;;;;;3.10;1.52;;;;;;;33.43;25.16;99117.95;1773823;80;21010;-46
2022/07/31 10:43:52;;;;;;;2.75;1.60;;;;;;;33.53;25.01;99114.94;1779814;80;21265;-46
2022/07/31 10:46:30;;;;;;;3.80;1.70;;;;;;;33.56;24.89;99115.30;1776738;80;21020;-46
2022/07/31 10:49:05;;;;;;;2.45;1.50;;;;;;;33.59;24.95;99119.13;1775945;80;20918;-46
2022/07/31 10:51:52;;;;;;;3.02;1.70;;;;;;;33.68;24.96;99110.38;1780042;80;21526;-46
2022/07/31 10:54:44;;;;;;;1.95;1.40;;;;;;;33.77;24.63;99114.27;1780000;80;21005;-46
2022/07/31 10:57:34;;;;;;;2.67;1.30;;;;;;;33.97;24.58;99114.47;1704145;84;21217;-46
2022/07/31 11:00:21;;;;;;;2.30;1.75;;;;;;;34.20;24.04;99101.73;1703850;84;21053;-46
2022/07/31 11:02:51;;;;;;;3.77;1.75;;;;;;;34.47;23.43;99098.47;1688968;83;21106;-46
2022/07/31 11:05:24;;;;;;;2.52;1.57;;;;;;;34.58;23.28;99098.98;1778732;80;20938;-46
2022/07/31 11:08:09;;;;;;;3.55;1.42;;;;;;;34.75;22.72;99101.76;1778446;80;21032;-46
2022/07/31 11:10:38;;;;;;;3.15;1.70;;;;;;;34.91;22.85;99097.84;1770007;80;22038;-46
2022/07/31 11:13:24;;;;;;;1.40;1.30;;;;;;;35.06;23.16;99099.53;1714684;80;20921;-46
2022/07/31 11:16:04;;;;;;;2.42;1.75;;;;;;;35.26;22.98;99094.78;1778337;80;21032;-47
2022/07/31 11:19:05;;;;;;;3.00;1.35;;;;;;;35.43;22.74;99091.72;1776561;80;21629;-47
2022/07/31 11:21:39;;;;;;;1.98;1.35;;;;;;;35.67;22.65;99084.55;1779754;80;21539;-46
2022/07/31 11:24:22;;;;;;;2.60;1.77;;;;;;;35.94;22.43;99086.77;1779947;80;21074;-47
2022/07/31 11:26:54;;;;;;;2.92;1.70;;;;;;;36.12;21.64;99085.91;1779722;80;22121;-46
2022/07/31 11:29:31;;;;;;;3.15;1.55;;;;;;;36.05;21.96;99086.56;1780063;80;21069;-46
2022/07/31 11:32:07;;;;;;;4.92;1.72;;;;;;;35.97;21.78;99082.20;1779812;80;21599;-46
2022/07/31 11:34:48;;;;;;;4.00;1.55;;;;;;;35.94;21.81;99075.47;1779889;80;21046;-46
2022/07/31 11:37:27;;;;;;;6.90;1.70;;;;;;;36.07;22.31;99080.47;1779825;80;21236;-46
2022/07/31 11:39:55;;;;;;;3.17;1.63;;;;;;;36.27;22.05;99070.63;1779907;80;21526;-46
2022/07/31 11:42:23;;;;;;;5.60;1.90;;;;;;;36.47;22.09;99071.37;1779642;80;21086;-47
2022/07/31 11:44:51;;;;;;;4.30;1.50;;;;;;;36.65;22.34;99059.86;1779890;80;21052;-46
2022/07/31 11:47:19;;;;;;;2.02;1.50;;;;;;;36.93;22.21;99067.09;1780080;80;21563;-46
2022/07/31 11:49:47;;;;;;;5.62;1.85;;;;;;;37.20;22.33;99061.35;1779988;80;21483;-46
2022/07/31 11:52:14;;;;;;;3.05;1.60;;;;;;;37.43;22.12;99048.95;1779765;80;21515;-46
2022/07/31 11:54:42;;;;;;;3.83;1.60;;;;;;;37.73;21.60;99053.37;1780041;80;20997;-47
2022/07/31 11:57:09;;;;;;;3.85;1.98;;;;;;;38.02;20.96;99054.92;1780007;80;21092;-47